Time;durP1;ratioP1;P1;durP2;ratioP2;P2;SDS_P1;SDS_P2;PMS_P1;PMS_P2;Temp;Humidity;BMP_temperature;BMP_pressure;BME280_temperature;BME280_humidity;BME280_pressure;Samples;Min_cycle;Max_cycle;Signal;HPM_P1;HPM_P2
2022/02/12 00:00:24;;;;;;;12.43;3.05;;;-0.30;99.90;;;;;;5034802;28;20029;-74
2022/02/12 00:02:53;;;;;;;10.15;3.80;;;-0.30;99.90;;;;;;5033642;28;20537;-75
2022/02/12 00:05:19;;;;;;;12.52;4.10;;;-0.20;99.90;;;;;;5033280;28;20489;-75
2022/02/12 00:07:46;;;;;;;13.35;3.25;;;-0.20;99.90;;;;;;5035287;28;20022;-75
2022/02/12 00:10:12;;;;;;;10.90;2.92;;;-0.20;99.90;;;;;;5034618;28;20029;-76
2022/02/12 00:12:40;;;;;;;14.75;3.65;;;-0.20;99.90;;;;;;5033763;28;20022;-76
2022/02/12 00:15:07;;;;;;;16.03;3.57;;;-0.20;99.90;;;;;;5035029;28;20025;-76
2022/02/12 00:17:32;;;;;;;9.90;3.17;;;-0.20;99.90;;;;;;5034815;28;20025;-76
2022/02/12 00:19:58;;;;;;;16.98;3.50;;;-0.30;99.90;;;;;;5032779;28;20032;-76
2022/02/12 00:22:23;;;;;;;11.38;3.42;;;-0.30;99.90;;;;;;5033218;28;20021;-76
2022/02/12 00:24:49;;;;;;;13.48;3.22;;;-0.30;99.90;;;;;;5035177;28;20036;-76
2022/02/12 00:27:15;;;;;;;15.98;3.55;;;-0.30;99.90;;;;;;5034487;28;20076;-76
2022/02/12 00:29:40;;;;;;;15.55;3.97;;;-0.30;99.90;;;;;;5033506;28;20519;-76
2022/02/12 00:32:06;;;;;;;9.98;3.45;;;-0.30;99.90;;;;;;5034884;28;20028;-77
2022/02/12 00:34:32;;;;;;;13.63;3.03;;;-0.30;99.90;;;;;;5033870;28;20025;-76
2022/02/12 00:36:57;;;;;;;10.02;3.05;;;-0.30;99.90;;;;;;5032980;28;20029;-76
2022/02/12 00:39:23;;;;;;;12.65;3.55;;;-0.30;99.90;;;;;;5033075;28;20029;-76
2022/02/12 00:41:48;;;;;;;13.63;3.17;;;-0.30;99.90;;;;;;5032895;28;20025;-76
2022/02/12 00:44:14;;;;;;;11.00;2.97;;;-0.40;99.90;;;;;;5032804;28;20474;-76
2022/02/12 00:46:40;;;;;;;11.80;3.40;;;-0.40;99.90;;;;;;5034015;28;20024;-75
2022/02/12 00:49:06;;;;;;;12.93;3.88;;;-0.40;99.90;;;;;;5032449;28;20486;-75
2022/02/12 00:51:31;;;;;;;13.63;3.45;;;-0.40;99.90;;;;;;5033929;28;20116;-75
2022/02/12 00:53:57;;;;;;;15.50;4.03;;;-0.40;99.90;;;;;;5034449;28;20024;-77
2022/02/12 00:56:22;;;;;;;13.20;3.17;;;-0.40;99.90;;;;;;5033754;28;20021;-75
2022/02/12 00:58:48;;;;;;;12.40;3.53;;;-0.40;99.90;;;;;;5033918;28;20078;-75
2022/02/12 01:01:13;;;;;;;13.05;3.25;;;-0.50;99.90;;;;;;5033964;28;20034;-76
2022/02/12 01:03:39;;;;;;;13.48;4.00;;;-0.40;99.90;;;;;;5033555;28;20038;-76
2022/02/12 01:06:05;;;;;;;17.10;5.10;;;-0.40;99.90;;;;;;5033798;28;20371;-76
2022/02/12 01:08:30;;;;;;;11.88;4.28;;;-0.40;99.90;;;;;;5032303;28;20064;-75
2022/02/12 01:10:56;;;;;;;14.43;4.07;;;-0.50;99.90;;;;;;5032320;28;20467;-77
2022/02/12 01:13:21;;;;;;;16.25;4.28;;;-0.50;99.90;;;;;;5033606;28;20076;-75
2022/02/12 01:15:47;;;;;;;14.68;3.72;;;-0.50;99.90;;;;;;5033424;28;20021;-75
2022/02/12 01:18:13;;;;;;;22.33;4.13;;;-0.50;99.90;;;;;;5033389;28;20152;-76
2022/02/12 01:20:39;;;;;;;12.82;4.53;;;-0.50;99.90;;;;;;5033761;28;20021;-76
2022/02/12 01:23:05;;;;;;;9.52;2.65;;;-0.50;99.90;;;;;;5033996;28;20036;-76
2022/02/12 01:25:32;;;;;;;20.15;4.30;;;-0.60;99.90;;;;;;5034538;28;20033;-76
2022/02/12 01:27:57;;;;;;;13.48;3.55;;;-0.50;99.90;;;;;;5033819;28;20025;-75
2022/02/12 01:30:23;;;;;;;17.55;3.90;;;-0.50;99.90;;;;;;5033632;28;20481;-75
2022/02/12 01:32:49;;;;;;;14.35;3.88;;;-0.50;99.90;;;;;;5033337;28;20525;-75
2022/02/12 01:35:14;;;;;;;15.57;3.72;;;-0.60;99.90;;;;;;5032521;28;20021;-75
2022/02/12 01:37:40;;;;;;;18.48;3.55;;;-0.40;99.90;;;;;;5033763;28;20088;-76
2022/02/12 01:40:08;;;;;;;11.77;4.05;;;-0.40;99.90;;;;;;5034048;28;20033;-75
2022/02/12 01:42:35;;;;;;;11.70;3.75;;;-0.40;99.90;;;;;;5033531;28;20026;-76
2022/02/12 01:45:01;;;;;;;11.75;3.97;;;-0.50;99.90;;;;;;5033374;28;20049;-77
2022/02/12 01:47:27;;;;;;;13.35;4.07;;;-0.40;99.90;;;;;;5033060;28;20049;-76
2022/02/12 01:49:54;;;;;;;12.63;4.05;;;-0.50;99.90;;;;;;5033276;28;20068;-76
2022/02/12 01:52:21;;;;;;;9.70;3.55;;;-0.50;99.90;;;;;;5032058;28;20025;-76
2022/02/12 01:54:47;;;;;;;13.65;3.28;;;-0.60;99.90;;;;;;5033569;28;20108;-76
2022/02/12 01:57:13;;;;;;;12.88;3.75;;;-0.60;99.90;;;;;;5033893;28;20060;-75
2022/02/12 01:59:42;;;;;;;11.35;3.50;;;-0.50;99.90;;;;;;5033529;28;20030;-76
2022/02/12 02:02:08;;;;;;;15.02;3.50;;;-0.50;99.90;;;;;;5033283;28;20489;-75
2022/02/12 02:04:35;;;;;;;16.98;3.70;;;-0.50;99.90;;;;;;5033256;28;20471;-77
2022/02/12 02:07:01;;;;;;;12.75;3.97;;;-0.60;99.90;;;;;;5032101;28;20425;-75
2022/02/12 02:09:30;;;;;;;14.48;3.88;;;-0.20;99.90;;;;;;5034200;28;20112;-77
2022/02/12 02:11:56;;;;;;;19.77;4.20;;;-0.50;99.90;;;;;;5033874;28;20455;-75
2022/02/12 02:14:36;;;;;;;11.73;3.10;;;-0.50;99.90;;;;;;5033487;28;20022;-75
2022/02/12 02:17:02;;;;;;;16.33;3.63;;;-0.50;99.90;;;;;;5033445;28;20033;-76
2022/02/12 02:19:30;;;;;;;17.70;4.82;;;-0.50;99.90;;;;;;5031806;28;20118;-76
2022/02/12 02:21:57;;;;;;;13.68;3.53;;;-0.50;99.90;;;;;;5033718;28;20386;-76
2022/02/12 02:24:23;;;;;;;15.30;4.22;;;-0.40;99.90;;;;;;5033141;28;20049;-76
2022/02/12 02:26:49;;;;;;;17.00;4.05;;;-0.40;99.90;;;;;;5033055;28;20036;-76
2022/02/12 02:29:15;;;;;;;15.65;4.22;;;-0.40;99.90;;;;;;5036508;28;20021;-76
2022/02/12 02:31:41;;;;;;;13.60;3.90;;;-0.40;99.90;;;;;;5035414;28;20021;-76
2022/02/12 02:34:11;;;;;;;19.25;4.65;;;-0.40;99.90;;;;;;5034994;28;20075;-76
2022/02/12 02:36:38;;;;;;;16.65;4.15;;;-0.40;99.90;;;;;;5035314;28;20053;-76
2022/02/12 02:39:05;;;;;;;12.85;4.28;;;-0.50;99.90;;;;;;5036740;28;20033;-77
2022/02/12 02:41:30;;;;;;;12.95;3.83;;;-0.50;99.90;;;;;;5036602;28;20030;-76
2022/02/12 02:43:57;;;;;;;13.38;3.75;;;-0.50;99.90;;;;;;5035360;28;20045;-76
2022/02/12 02:46:22;;;;;;;10.88;3.20;;;-0.50;99.90;;;;;;5036495;28;20112;-76
2022/02/12 02:48:48;;;;;;;11.45;3.55;;;-0.50;99.90;;;;;;5036078;28;20025;-76
2022/02/12 02:56:43;;;;;;;15.45;2.95;;;-0.60;99.90;;;;;;5034216;28;20056;-76
2022/02/12 02:59:09;;;;;;;17.83;3.28;;;-0.60;99.90;;;;;;5036243;28;20108;-76
2022/02/12 03:01:35;;;;;;;13.23;3.17;;;-0.60;99.90;;;;;;5034812;28;20470;-76
2022/02/12 03:04:02;;;;;;;9.32;3.25;;;-0.50;99.90;;;;;;5035631;28;20037;-76
2022/02/12 03:06:29;;;;;;;11.88;3.08;;;-0.50;99.90;;;;;;5034647;28;20483;-76
2022/02/12 03:08:56;;;;;;;15.27;3.15;;;-0.50;99.90;;;;;;5036393;28;20025;-76
2022/02/12 03:11:22;;;;;;;8.30;2.80;;;-0.50;99.90;;;;;;5034411;28;20091;-76
2022/02/12 03:13:50;;;;;;;17.13;3.97;;;-0.50;99.90;;;;;;5035835;28;20021;-76
2022/02/12 03:16:15;;;;;;;13.18;2.83;;;-0.50;99.90;;;;;;5035577;28;20067;-77
2022/02/12 03:18:47;;;;;;;11.48;2.83;;;-0.40;99.90;;;;;;5035818;28;20022;-76
2022/02/12 03:21:14;;;;;;;9.60;2.42;;;-0.50;99.90;;;;;;5034484;28;20033;-76
2022/02/12 03:23:40;;;;;;;15.10;3.95;;;-0.40;99.90;;;;;;5035861;28;20029;-76
2022/02/12 03:26:06;;;;;;;10.77;3.33;;;-0.40;99.90;;;;;;5034026;28;20533;-76
2022/02/12 03:28:33;;;;;;;22.25;3.03;;;-0.40;99.90;;;;;;5034304;28;20120;-76
2022/02/12 03:30:58;;;;;;;21.60;2.88;;;-0.50;99.90;;;;;;5034112;28;20560;-76
2022/02/12 03:33:24;;;;;;;12.65;2.95;;;-0.40;99.90;;;;;;5035167;28;20064;-76
2022/02/12 03:35:50;;;;;;;13.57;2.80;;;-0.40;99.90;;;;;;5035449;28;20029;-76
2022/02/12 03:38:27;;;;;;;14.68;3.47;;;-0.40;99.90;;;;;;5035223;28;20482;-76
2022/02/12 03:41:00;;;;;;;11.90;2.97;;;-0.40;99.90;;;;;;5034171;28;20021;-76
2022/02/12 03:43:27;;;;;;;16.05;3.75;;;-0.40;99.90;;;;;;5035436;28;20418;-76
2022/02/12 03:45:53;;;;;;;14.82;3.33;;;-0.40;99.90;;;;;;5033836;28;20055;-76
2022/02/12 03:48:19;;;;;;;10.95;3.35;;;-0.40;99.90;;;;;;5035177;28;20033;-76
2022/02/12 03:50:45;;;;;;;10.90;3.30;;;-0.30;99.90;;;;;;5034976;28;20034;-76
2022/02/12 03:53:11;;;;;;;18.45;2.53;;;-0.30;99.90;;;;;;5033881;28;20022;-76
2022/02/12 03:55:37;;;;;;;14.70;2.65;;;-0.30;99.90;;;;;;5034738;28;20032;-76
2022/02/12 03:58:04;;;;;;;10.68;3.15;;;-0.40;99.90;;;;;;5033868;28;20027;-76
2022/02/12 04:00:30;;;;;;;15.32;3.22;;;-0.30;99.90;;;;;;5035372;28;20044;-76
2022/02/12 04:02:57;;;;;;;12.20;3.17;;;-0.40;99.90;;;;;;5034626;28;20105;-76
2022/02/12 04:05:23;;;;;;;14.93;2.35;;;-0.40;99.90;;;;;;5032633;28;20483;-76
2022/02/12 04:07:48;;;;;;;14.38;3.15;;;-0.40;99.90;;;;;;5033655;28;20075;-76
2022/02/12 04:10:16;;;;;;;10.57;3.25;;;-0.30;99.90;;;;;;5034958;28;20355;-76
2022/02/12 04:12:43;;;;;;;9.38;2.10;;;-0.30;99.90;;;;;;5033436;28;20024;-76
2022/02/12 04:15:09;;;;;;;12.20;2.60;;;-0.40;99.90;;;;;;5034719;28;20378;-76
2022/02/12 04:17:36;;;;;;;6.97;2.38;;;-0.40;99.90;;;;;;5034917;28;20126;-76
2022/02/12 04:20:07;;;;;;;11.05;2.60;;;-0.40;99.90;;;;;;5033837;28;20031;-76
2022/02/12 04:22:33;;;;;;;19.67;2.90;;;-0.40;99.90;;;;;;5035093;28;20033;-76
2022/02/12 04:25:00;;;;;;;13.20;2.15;;;-0.40;99.90;;;;;;5034331;28;20061;-76
2022/02/12 04:27:27;;;;;;;9.27;2.33;;;-0.40;99.90;;;;;;5034464;28;20022;-76
2022/02/12 04:29:55;;;;;;;11.63;2.58;;;-0.40;99.90;;;;;;5033046;28;20029;-76
2022/02/12 04:32:20;;;;;;;10.73;1.83;;;-0.40;99.90;;;;;;5032433;28;20029;-76
2022/02/12 04:34:48;;;;;;;9.45;2.22;;;-0.40;99.90;;;;;;5033507;28;20394;-76
2022/02/12 04:37:13;;;;;;;8.43;1.45;;;-0.40;99.90;;;;;;5034083;28;20022;-76
2022/02/12 04:39:39;;;;;;;14.43;2.03;;;-0.50;99.90;;;;;;5032811;28;20025;-76
2022/02/12 04:42:11;;;;;;;11.70;1.92;;;-0.40;99.90;;;;;;5032755;28;20029;-76
2022/02/12 04:44:40;;;;;;;6.88;1.92;;;-0.40;99.90;;;;;;5032732;28;20491;-76
2022/02/12 04:47:06;;;;;;;12.63;1.60;;;-0.30;99.90;;;;;;5032650;28;20017;-76
2022/02/12 04:49:32;;;;;;;10.23;1.48;;;-0.30;99.90;;;;;;5032152;28;20025;-76
2022/02/12 04:51:57;;;;;;;9.60;1.98;;;-0.30;99.90;;;;;;5033692;28;20530;-76
2022/02/12 04:54:23;;;;;;;9.05;1.80;;;-0.30;99.90;;;;;;5032925;28;20501;-76
2022/02/12 04:56:48;;;;;;;8.05;1.63;;;-0.30;99.90;;;;;;5032587;28;20032;-76
2022/02/12 04:59:14;;;;;;;11.75;2.17;;;-0.30;99.90;;;;;;5034172;28;20028;-76
2022/02/12 05:01:39;;;;;;;11.23;1.08;;;-0.20;99.90;;;;;;5032639;28;20022;-76
2022/02/12 05:04:05;;;;;;;9.80;1.42;;;-0.20;99.90;;;;;;5032467;28;20041;-76
2022/02/12 05:06:30;;;;;;;7.90;1.77;;;-0.30;99.90;;;;;;5034077;28;20030;-76
2022/02/12 05:08:56;;;;;;;9.55;1.77;;;-0.30;99.90;;;;;;5033683;28;20447;-76
2022/02/12 05:11:21;;;;;;;8.60;1.38;;;-0.20;99.90;;;;;;5032401;28;20390;-76
2022/02/12 05:13:47;;;;;;;7.35;1.85;;;-0.30;99.90;;;;;;5033688;28;20037;-75
2022/02/12 05:16:12;;;;;;;15.88;2.03;;;-0.20;99.90;;;;;;5033580;28;20018;-76
2022/02/12 05:18:38;;;;;;;19.10;1.88;;;-0.20;99.90;;;;;;5032452;28;20017;-76
2022/02/12 05:21:03;;;;;;;12.43;1.30;;;-0.30;99.90;;;;;;5033466;28;20084;-76
2022/02/12 05:23:29;;;;;;;8.00;2.22;;;-0.30;99.90;;;;;;5034257;28;20029;-76
2022/02/12 05:25:55;;;;;;;12.20;1.75;;;-0.30;99.90;;;;;;5033323;28;20103;-76
2022/02/12 05:28:20;;;;;;;9.45;1.45;;;-0.30;99.90;;;;;;5033667;28;20065;-76
2022/02/12 05:30:46;;;;;;;11.05;1.90;;;-0.30;99.90;;;;;;5032326;28;20052;-76
2022/02/12 05:33:11;;;;;;;7.40;1.85;;;-0.30;99.90;;;;;;5032166;28;20104;-76
2022/02/12 05:35:37;;;;;;;17.10;2.10;;;-0.20;99.90;;;;;;5033970;28;20071;-76
2022/02/12 05:38:03;;;;;;;8.80;1.75;;;-0.20;99.90;;;;;;5033620;28;20113;-76
2022/02/12 05:40:29;;;;;;;12.43;2.15;;;-0.20;99.90;;;;;;5033317;28;20056;-76
2022/02/12 05:42:55;;;;;;;8.75;1.77;;;-0.20;99.90;;;;;;5033495;28;20116;-76
2022/02/12 05:45:21;;;;;;;12.43;1.80;;;-0.10;99.90;;;;;;5033367;28;20040;-76
2022/02/12 05:47:46;;;;;;;10.35;1.40;;;-0.10;99.90;;;;;;5033832;28;20029;-75
2022/02/12 05:50:12;;;;;;;12.60;1.73;;;-0.10;99.90;;;;;;5032031;28;20036;-76
2022/02/12 05:52:37;;;;;;;11.25;1.67;;;0.00;99.90;;;;;;5031872;28;20386;-77
2022/02/12 05:55:03;;;;;;;7.03;1.33;;;0.00;99.90;;;;;;5033268;28;20378;-76
2022/02/12 05:57:29;;;;;;;11.38;2.58;;;-0.10;99.90;;;;;;5031857;28;20076;-76
2022/02/12 05:59:55;;;;;;;16.60;1.90;;;-0.10;99.90;;;;;;5033558;28;20025;-76
2022/02/12 06:02:20;;;;;;;16.42;1.88;;;-0.10;99.90;;;;;;5035983;28;20121;-76
2022/02/12 06:04:46;;;;;;;10.48;1.60;;;-0.10;99.90;;;;;;5037114;28;20033;-77
2022/02/12 06:07:12;;;;;;;7.30;1.30;;;-0.10;99.90;;;;;;5036964;28;20482;-76
2022/02/12 06:09:37;;;;;;;11.88;2.15;;;-0.20;99.90;;;;;;5037032;28;20060;-77
2022/02/12 06:12:04;;;;;;;8.07;2.03;;;-0.10;99.90;;;;;;5036901;28;20437;-76
2022/02/12 06:14:30;;;;;;;2.78;0.85;;;-0.10;99.90;;;;;;5037365;28;20021;-76
2022/02/12 06:16:58;;;;;;;12.98;1.45;;;-0.20;99.90;;;;;;5036930;28;20156;-76
2022/02/12 06:19:24;;;;;;;9.85;1.17;;;-0.20;99.90;;;;;;5036493;28;20056;-76
2022/02/12 06:21:50;;;;;;;12.52;1.30;;;-0.20;99.90;;;;;;5035626;28;20034;-77
2022/02/12 06:24:15;;;;;;;9.88;1.98;;;-0.20;99.90;;;;;;5035446;28;20037;-76
2022/02/12 06:26:46;;;;;;;12.25;1.40;;;-0.30;99.90;;;;;;5036994;28;20368;-76
2022/02/12 06:29:12;;;;;;;5.05;1.27;;;-0.30;99.90;;;;;;5037235;28;20025;-76
2022/02/12 06:31:38;;;;;;;10.63;2.40;;;-0.30;99.90;;;;;;5037079;28;20060;-76
2022/02/12 06:34:03;;;;;;;10.57;2.05;;;-0.30;99.90;;;;;;5036285;28;20083;-76
2022/02/12 06:36:29;;;;;;;21.05;2.00;;;-0.30;99.90;;;;;;5036544;28;20033;-76
2022/02/12 06:38:54;;;;;;;10.20;1.63;;;-0.20;99.90;;;;;;5035252;28;20483;-76
2022/02/12 06:41:20;;;;;;;12.05;1.55;;;-0.10;99.90;;;;;;5035151;28;20021;-76
2022/02/12 06:43:45;;;;;;;10.10;2.08;;;-0.10;99.90;;;;;;5035151;28;20029;-76
2022/02/12 06:46:13;;;;;;;14.63;1.92;;;-0.10;99.90;;;;;;5036588;28;20030;-76
2022/02/12 06:48:39;;;;;;;7.75;1.98;;;-0.10;99.90;;;;;;5036098;28;20086;-76
2022/02/12 06:51:05;;;;;;;11.90;2.17;;;-0.10;99.90;;;;;;5034771;28;20409;-76
2022/02/12 06:53:33;;;;;;;9.73;2.03;;;-0.10;99.90;;;;;;5035098;28;20035;-76
2022/02/12 06:55:59;;;;;;;9.98;1.83;;;-0.10;99.90;;;;;;5036361;28;20025;-76
2022/02/12 06:58:25;;;;;;;14.95;1.88;;;-0.10;99.90;;;;;;5034854;28;20167;-76
2022/02/12 07:00:50;;;;;;;5.70;1.60;;;-0.10;99.90;;;;;;5035686;28;20116;-76
2022/02/12 07:03:16;;;;;;;6.63;1.60;;;-0.20;99.90;;;;;;5035565;28;20479;-75
2022/02/12 07:05:41;;;;;;;11.68;2.03;;;-0.20;99.90;;;;;;5036106;28;20018;-76
2022/02/12 07:08:07;;;;;;;12.10;2.45;;;-0.30;99.90;;;;;;5035532;28;20087;-75
2022/02/12 07:10:34;;;;;;;10.05;2.20;;;-0.30;99.90;;;;;;5034463;28;20033;-76
2022/02/12 07:13:00;;;;;;;9.40;2.15;;;-0.30;99.90;;;;;;5034624;28;20352;-76
2022/02/12 07:15:26;;;;;;;10.23;2.95;;;-0.30;99.90;;;;;;5035904;28;20013;-76
2022/02/12 07:17:51;;;;;;;8.77;3.10;;;-0.30;99.90;;;;;;5035535;28;20075;-76
2022/02/12 07:20:17;;;;;;;8.27;2.17;;;-0.30;99.90;;;;;;5035823;28;20022;-76
2022/02/12 07:22:42;;;;;;;17.08;3.05;;;-0.30;99.90;;;;;;5035543;28;20494;-76
2022/02/12 07:25:09;;;;;;;14.77;3.13;;;-0.30;99.90;;;;;;5034051;28;20067;-76
2022/02/12 07:27:38;;;;;;;16.05;2.45;;;-0.30;99.90;;;;;;5035552;28;20037;-77
2022/02/12 07:30:05;;;;;;;13.38;3.30;;;-0.30;99.90;;;;;;5035321;28;20018;-76
2022/02/12 07:32:30;;;;;;;9.48;2.20;;;-0.30;99.90;;;;;;5035226;28;20029;-77
2022/02/12 07:34:56;;;;;;;7.90;1.95;;;-0.30;99.90;;;;;;5034701;28;20021;-76
2022/02/12 07:37:21;;;;;;;5.88;2.20;;;-0.30;99.90;;;;;;5033976;28;20493;-75
2022/02/12 07:39:47;;;;;;;11.63;2.42;;;-0.30;99.90;;;;;;5035537;28;20052;-76
2022/02/12 07:42:12;;;;;;;12.35;2.33;;;-0.30;99.90;;;;;;5033893;28;20025;-76
2022/02/12 07:44:38;;;;;;;11.88;2.58;;;-0.20;99.90;;;;;;5035395;28;20025;-75
2022/02/12 07:47:04;;;;;;;13.75;3.05;;;-0.20;99.90;;;;;;5033919;28;20120;-75
2022/02/12 07:49:29;;;;;;;10.20;2.17;;;-0.20;99.90;;;;;;5034978;28;20056;-75
2022/02/12 07:51:55;;;;;;;8.02;1.92;;;-0.10;99.90;;;;;;5033861;28;20063;-75
2022/02/12 07:54:21;;;;;;;9.90;2.42;;;0.00;99.90;;;;;;5033706;28;20518;-75
2022/02/12 07:56:46;;;;;;;12.75;2.35;;;0.10;99.90;;;;;;5034362;28;20053;-75
2022/02/12 07:59:12;;;;;;;12.82;2.28;;;0.10;99.90;;;;;;5034313;28;20429;-75
2022/02/12 08:01:37;;;;;;;17.60;3.10;;;0.20;99.90;;;;;;5034374;28;20056;-74
2022/02/12 08:04:03;;;;;;;10.98;3.13;;;0.20;99.90;;;;;;5034484;28;20037;-75
2022/02/12 08:09:12;;;;;;;13.05;2.67;;;0.30;99.90;;;;;;5035829;28;20052;-76
2022/02/12 08:11:42;;;;;;;11.85;3.28;;;0.40;99.90;;;;;;5034126;28;20459;-77
2022/02/12 08:14:07;;;;;;;11.68;2.75;;;0.50;99.90;;;;;;5034988;28;20439;-75
2022/02/12 08:16:33;;;;;;;12.20;2.70;;;0.60;99.90;;;;;;5033711;28;20048;-77
2022/02/12 08:18:59;;;;;;;8.32;2.53;;;0.70;99.90;;;;;;5034821;28;20061;-76
2022/02/12 08:21:24;;;;;;;6.18;2.00;;;0.80;99.90;;;;;;5034574;28;20486;-76
2022/02/12 08:23:50;;;;;;;11.75;3.00;;;0.90;99.90;;;;;;5034279;28;20021;-73
2022/02/12 08:26:16;;;;;;;16.27;2.85;;;1.00;99.90;;;;;;5033116;28;20025;-74
2022/02/12 08:28:41;;;;;;;10.30;2.08;;;0.90;99.90;;;;;;5034098;28;20029;-72
2022/02/12 08:31:07;;;;;;;15.15;2.42;;;1.10;99.90;;;;;;5033275;28;20032;-73
2022/02/12 08:33:33;;;;;;;14.07;2.90;;;1.20;99.90;;;;;;5033445;28;20091;-73
2022/02/12 08:35:58;;;;;;;9.52;2.33;;;1.30;99.90;;;;;;5033960;28;20045;-75
2022/02/12 08:38:24;;;;;;;5.47;1.95;;;1.40;99.90;;;;;;5034533;28;20402;-76
2022/02/12 08:40:49;;;;;;;7.53;2.75;;;1.40;99.90;;;;;;5033556;28;20029;-76
2022/02/12 08:43:15;;;;;;;13.95;3.03;;;1.40;99.90;;;;;;5034159;28;20029;-73
2022/02/12 08:45:41;;;;;;;11.65;2.75;;;1.50;99.90;;;;;;5049428;28;20375;-74
2022/02/12 08:48:09;;;;;;;12.00;2.42;;;1.70;99.90;;;;;;5034643;28;20033;-75
2022/02/12 08:50:35;;;;;;;13.15;2.17;;;1.80;99.90;;;;;;5033727;28;20025;-74
2022/02/12 08:53:01;;;;;;;7.90;2.25;;;1.90;99.90;;;;;;5034344;28;20127;-75
2022/02/12 08:55:26;;;;;;;17.77;2.08;;;1.90;99.90;;;;;;5033011;28;20053;-74
2022/02/12 08:57:52;;;;;;;10.80;2.63;;;2.00;99.90;;;;;;5033590;28;20071;-74
2022/02/12 09:00:18;;;;;;;4.88;1.95;;;2.00;99.90;;;;;;5034307;28;20022;-77
2022/02/12 09:02:43;;;;;;;10.90;2.72;;;2.10;99.90;;;;;;5034059;28;20040;-75
2022/02/12 09:05:09;;;;;;;13.80;2.13;;;2.10;99.90;;;;;;5034244;28;20101;-77
2022/02/12 09:07:35;;;;;;;12.63;2.00;;;2.30;99.90;;;;;;5032696;28;20029;-75
2022/02/12 09:10:01;;;;;;;12.25;1.92;;;2.30;99.90;;;;;;5034389;28;20037;-75
2022/02/12 09:12:27;;;;;;;5.65;1.73;;;2.40;99.90;;;;;;5033813;28;20022;-77
2022/02/12 09:14:53;;;;;;;8.02;1.75;;;2.50;99.90;;;;;;5034170;28;20029;-77
2022/02/12 09:17:19;;;;;;;13.15;1.80;;;2.60;99.90;;;;;;5032739;28;20092;-75
2022/02/12 09:19:45;;;;;;;11.57;1.35;;;2.70;99.90;;;;;;5034175;28;20095;-75
2022/02/12 09:22:10;;;;;;;6.90;1.45;;;2.80;99.90;;;;;;5032379;28;20036;-76
2022/02/12 09:24:36;;;;;;;28.35;3.38;;;2.90;99.90;;;;;;5033987;28;20455;-77
2022/02/12 09:27:03;;;;;;;15.32;2.17;;;2.90;99.90;;;;;;5032778;28;20029;-76
2022/02/12 09:29:28;;;;;;;6.95;1.50;;;3.10;99.90;;;;;;5033809;28;20017;-76
2022/02/12 09:31:54;;;;;;;6.47;1.35;;;3.20;99.90;;;;;;5033760;28;20029;-75
2022/02/12 09:34:19;;;;;;;7.63;1.45;;;3.20;99.90;;;;;;5048711;28;20534;-76
2022/02/12 09:36:45;;;;;;;9.73;1.50;;;3.30;99.90;;;;;;5037085;28;20025;-76
2022/02/12 09:39:10;;;;;;;4.75;1.45;;;3.40;99.90;;;;;;5040022;28;20034;-76
2022/02/12 09:41:36;;;;;;;14.23;1.50;;;3.40;99.90;;;;;;5040166;28;20029;-76
2022/02/12 09:44:02;;;;;;;9.70;2.40;;;3.50;99.90;;;;;;5040168;28;20049;-75
2022/02/12 09:46:31;;;;;;;8.35;1.25;;;3.60;99.90;;;;;;5055509;28;20482;-76
2022/02/12 09:48:57;;;;;;;12.85;1.98;;;3.70;99.90;;;;;;5040570;28;20024;-75
2022/02/12 09:51:24;;;;;;;10.32;1.23;;;3.70;99.90;;;;;;5040066;28;20025;-76
2022/02/12 09:53:50;;;;;;;8.32;2.63;;;3.80;99.90;;;;;;5040258;28;20017;-76
2022/02/12 09:56:16;;;;;;;6.35;1.25;;;3.80;99.90;;;;;;5039966;28;20075;-77
2022/02/12 09:58:42;;;;;;;13.30;1.58;;;4.30;99.90;;;;;;5054163;28;20017;-75
2022/02/12 10:01:09;;;;;;;14.27;1.95;;;3.90;99.90;;;;;;5039075;28;20025;-75
2022/02/12 10:03:35;;;;;;;8.00;1.55;;;3.90;99.90;;;;;;5039441;28;20530;-76
2022/02/12 10:06:02;;;;;;;8.45;1.40;;;3.90;99.90;;;;;;5039496;28;20056;-75
2022/02/12 10:08:28;;;;;;;10.23;1.35;;;4.10;99.90;;;;;;5039607;28;20033;-75
2022/02/12 10:10:53;;;;;;;12.00;1.83;;;4.10;99.90;;;;;;5037870;28;20080;-76
2022/02/12 10:13:30;;;;;;;8.98;1.80;;;4.20;99.90;;;;;;5039708;28;20057;-75
2022/02/12 10:15:58;;;;;;;10.75;1.50;;;4.30;99.90;;;;;;5038256;28;20117;-75
2022/02/12 10:18:26;;;;;;;11.40;2.95;;;4.40;99.90;;;;;;5039754;28;20067;-76
2022/02/12 10:20:54;;;;;;;6.43;1.60;;;4.50;99.90;;;;;;5039823;28;20029;-75
2022/02/12 10:23:23;;;;;;;6.85;1.70;;;4.60;99.90;;;;;;5039822;28;20071;-76
2022/02/12 10:26:02;;;;;;;11.52;1.13;;;4.70;99.90;;;;;;5039302;28;20013;-76
2022/02/12 10:28:29;;;;;;;8.23;1.70;;;4.80;99.90;;;;;;5054597;28;20033;-77
2022/02/12 10:30:56;;;;;;;7.00;1.48;;;4.90;99.90;;;;;;5038399;28;20057;-77
2022/02/12 10:33:25;;;;;;;5.30;0.80;;;5.00;99.90;;;;;;5039786;28;20033;-76
2022/02/12 10:35:55;;;;;;;8.48;1.13;;;5.10;99.90;;;;;;5039757;28;20398;-76
2022/02/12 10:38:23;;;;;;;7.15;1.45;;;5.10;99.90;;;;;;5037935;28;20029;-76
2022/02/12 10:41:08;;;;;;;9.32;1.65;;;5.10;99.90;;;;;;5039388;28;20076;-76
2022/02/12 10:43:34;;;;;;;4.38;0.77;;;5.30;99.90;;;;;;5054317;28;20032;-75
2022/02/12 10:46:01;;;;;;;2.83;0.73;;;5.30;99.90;;;;;;5039257;28;20112;-75
2022/02/12 10:48:28;;;;;;;6.93;1.17;;;5.30;99.90;;;;;;5036659;28;20063;-77
2022/02/12 10:51:01;;;;;;;7.85;1.33;;;5.40;99.90;;;;;;5031765;28;20028;-76
2022/02/12 10:53:26;;;;;;;7.05;1.20;;;5.50;99.90;;;;;;5034876;28;20107;-75
2022/02/12 10:56:03;;;;;;;8.25;0.75;;;5.70;99.90;;;;;;5035103;28;20487;-77
2022/02/12 10:58:29;;;;;;;5.05;0.70;;;5.80;99.90;;;;;;5036004;28;20033;-76
2022/02/12 11:00:55;;;;;;;4.38;1.45;;;5.80;99.90;;;;;;5035922;28;20029;-75
2022/02/12 11:03:21;;;;;;;12.05;2.60;;;5.80;99.90;;;;;;5035757;28;20171;-75
2022/02/12 11:05:54;;;;;;;7.35;0.85;;;9.20;99.90;;;;;;5035462;28;20053;-75
2022/02/12 11:08:25;;;;;;;9.35;1.25;;;6.00;99.90;;;;;;5035878;28;20387;-75
2022/02/12 11:10:51;;;;;;;4.00;0.68;;;6.00;99.90;;;;;;5036048;28;20029;-75
2022/02/12 11:13:20;;;;;;;6.40;1.52;;;6.10;99.90;;;;;;5036186;28;20018;-75
2022/02/12 11:15:46;;;;;;;5.10;0.85;;;6.20;99.90;;;;;;5036081;28;20029;-75
2022/02/12 11:18:18;;;;;;;8.05;0.70;;;6.30;99.90;;;;;;5036046;28;20061;-77
2022/02/12 11:20:46;;;;;;;12.65;0.82;;;6.20;99.90;;;;;;5035776;28;20425;-75
2022/02/12 11:23:21;;;;;;;2.30;0.73;;;6.40;99.90;;;;;;5032670;28;20033;-74
2022/02/12 11:25:48;;;;;;;3.58;0.40;;;6.50;99.90;;;;;;5034729;28;20479;-75
2022/02/12 11:28:14;;;;;;;8.10;0.38;;;6.50;99.90;;;;;;5035782;28;20022;-75
2022/02/12 11:30:41;;;;;;;5.03;0.63;;;6.60;99.90;;;;;;5035827;28;20030;-75
2022/02/12 11:33:22;;;;;;;9.45;0.50;;;6.80;99.90;;;;;;5029922;28;20029;-75
2022/02/12 11:36:14;;;;;;;9.68;0.55;;;6.90;99.90;;;;;;5027249;28;20079;-76
2022/02/12 11:38:42;;;;;;;5.82;0.68;;;7.00;99.90;;;;;;5034856;28;20040;-76
2022/02/12 11:41:23;;;;;;;6.25;0.13;;;7.10;98.40;;;;;;5034975;28;20359;-77
2022/02/12 11:43:52;;;;;;;2.53;0.38;;;7.20;97.50;;;;;;5035762;28;20029;-77
2022/02/12 11:46:42;;;;;;;7.82;0.30;;;9.00;97.20;;;;;;5034061;28;20026;-77
2022/02/12 11:49:37;;;;;;;5.70;0.20;;;7.40;97.90;;;;;;5033102;28;20431;-77
2022/02/12 11:52:10;;;;;;;4.45;0.30;;;7.60;95.10;;;;;;5035611;28;20501;-76
2022/02/12 11:55:00;;;;;;;5.22;0.30;;;7.70;94.20;;;;;;5035815;28;20044;-76
2022/02/12 11:57:26;;;;;;;12.52;1.17;;;7.80;90.10;;;;;;5036135;28;20045;-77
2022/02/12 12:00:00;;;;;;;6.95;0.55;;;7.80;91.40;;;;;;5035563;28;20490;-77
2022/02/12 12:02:43;;;;;;;3.17;0.13;;;7.70;90.90;;;;;;5034574;28;20030;-75
2022/02/12 12:05:25;;;;;;;4.60;0.68;;;7.70;91.80;;;;;;5030497;28;20024;-75
2022/02/12 12:08:18;;;;;;;8.68;0.20;;;7.60;92.00;;;;;;5036097;28;20021;-78
2022/02/12 12:10:46;;;;;;;5.40;0.15;;;7.70;94.40;;;;;;5037092;28;20045;-76
2022/02/12 12:13:12;;;;;;;3.33;0.68;;;7.70;89.60;;;;;;5035868;28;20022;-77
2022/02/12 12:15:38;;;;;;;3.40;0.15;;;7.60;90.80;;;;;;5035851;28;20159;-77
2022/02/12 12:18:07;;;;;;;5.88;0.40;;;7.50;86.00;;;;;;5033396;28;20482;-77
2022/02/12 12:20:39;;;;;;;3.80;0.85;;;7.50;90.10;;;;;;5033982;28;20021;-77
2022/02/12 12:23:08;;;;;;;2.92;0.52;;;7.60;90.90;;;;;;5036281;28;20017;-77
2022/02/12 12:26:01;;;;;;;5.03;0.25;;;7.70;88.90;;;;;;5036081;28;20027;-77
2022/02/12 12:28:37;;;;;;;6.57;0.55;;;7.60;85.20;;;;;;5034694;28;20057;-77
2022/02/12 12:31:14;;;;;;;3.70;0.20;;;7.80;90.60;;;;;;5034859;28;20029;-76
2022/02/12 12:33:42;;;;;;;3.85;0.47;;;7.90;90.20;;;;;;5017988;28;20433;-76
2022/02/12 12:36:13;;;;;;;8.82;0.95;;;7.80;87.00;;;;;;5033195;28;20021;-75
2022/02/12 12:38:48;;;;;;;9.23;0.20;;;7.90;88.00;;;;;;5030767;28;20104;-74
2022/02/12 12:41:31;;;;;;;7.55;0.73;;;8.00;83.70;;;;;;5033143;28;20120;-75
2022/02/12 12:44:14;;;;;;;7.20;1.05;;;8.10;83.80;;;;;;5034194;28;20096;-75
2022/02/12 12:46:44;;;;;;;4.35;0.47;;;8.20;80.40;;;;;;5034190;28;20026;-74
2022/02/12 12:49:10;;;;;;;2.75;0.47;;;8.20;79.40;;;;;;5034149;28;20479;-74
2022/02/12 12:51:47;;;;;;;4.63;0.20;;;8.20;77.00;;;;;;5028056;28;20084;-75
2022/02/12 12:54:13;;;;;;;10.68;1.48;;;8.20;78.30;;;;;;5029630;28;20034;-75